Flight Track Log - Related Links

Times and Time Zones

All times are in EDT time to prevent confusion due to time zone crossing. See the DAL3676 flight status page for this flight to view local times or setup timezone preferences in your user account.

Time Position Orientation Groundspeed Altitude Reporting Facility
EDT Latitude Longitude Course Direction KTS MPH feet Rate Location/Type
Sun 07:09:08 PM 34.5725 -86.7328 North 213 245 4,300  Level Memphis Center
Sun 07:10:08 PM 34.6272 -86.6772 40° Northeast 192 221 6,500 2,600 Climbing Memphis Center
Sun 07:11:08 PM 34.7106 -86.6761 North 208 239 9,500 2,281 Climbing Memphis Center
Sun 07:12:09 PM 34.7942 -86.6775 359° North 256 295 11,100 1,350 Climbing Memphis Center
Sun 07:13:08 PM 34.8922 -86.6783 360° North 299 344 12,200 1,311 Climbing Memphis Center
Sun 07:14:00 PM 35.2641 -86.7269 North  Level FlightAware Approximate
Sun 07:14:08 PM 34.9944 -86.6792 360° North 344 396 13,700  Level Memphis Center
Sun 07:15:08 PM 35.1008 -86.6819 359° North 370 426 15,200 1,500 Climbing Memphis Center
Sun 07:16:08 PM 35.2092 -86.6772 North 383 441 16,700 1,400 Climbing Memphis Center
Sun 07:17:08 PM 35.3178 -86.6775 360° North 388 447 18,000 1,150 Climbing Memphis Center
Sun 07:18:08 PM 35.4303 -86.6775 360° North 388 447 19,000 1,000 Climbing Memphis Center
Sun 07:19:08 PM 35.5453 -86.6803 359° North 398 458 20,000 1,000 Climbing Memphis Center
Sun 07:20:08 PM 35.6619 -86.6800 360° North 405 466 21,000 1,050 Climbing Memphis Center
Sun 07:21:08 PM 35.7767 -86.6800 360° North 405 466 22,100 1,050 Climbing Memphis Center
Sun 07:22:08 PM 35.8914 -86.6828 359° North 405 466 23,100 1,000 Climbing Memphis Center
Sun 07:23:08 PM 35.9956 -86.6831 360° North 405 466 24,100 900 Climbing Memphis Center
Sun 07:24:08 PM 36.1225 -86.6722 North 405 466 24,900 650 Climbing Memphis Center
Sun 07:25:08 PM 36.2411 -86.6617 North 410 472 25,400 500 Climbing Memphis Center
Sun 07:26:08 PM 36.3617 -86.6536 North 426 490 25,900 500 Climbing Memphis Center
Sun 07:27:08 PM 36.4864 -86.6428 North 438 504 26,400 500 Climbing Memphis Center
Sun 07:28:08 PM 36.6072 -86.6347 North 438 504 26,900 500 Climbing Memphis Center
Sun 07:29:08 PM 36.7256 -86.6267 North 438 504 27,400 450 Climbing Memphis Center
Sun 07:30:08 PM 36.8358 -86.6164 North 438 504 27,800 450 Climbing Memphis Center
Sun 07:31:08 PM 36.9544 -86.6083 North 438 504 28,300 398 Climbing Memphis Center
Sun 07:33:09 PM 37.1947 -86.5867 North 436 502 29,000 230 Climbing Indianapolis Center
Sun 07:34:11 PM 37.3206 -86.5783 North 446 513 29,000  Level Indianapolis Center
Sun 07:35:13 PM 37.4694 -86.5631 North 456 525 29,000 341 Level Indianapolis Center
Sun 07:36:14 PM 37.5942 -86.5208 15° North 459 528 29,700 585 Climbing Indianapolis Center
Sun 07:37:16 PM 37.7169 -86.4750 16° North 458 527 30,200 484 Climbing Indianapolis Center
Sun 07:38:18 PM 37.8347 -86.4308 16° North 453 521 30,700 390 Climbing Indianapolis Center
Sun 07:39:19 PM 37.9547 -86.3867 16° North 449 517 31,000 146 Climbing Indianapolis Center
Sun 07:40:21 PM 38.0753 -86.3403 17° North 454 522 31,000  Level Indianapolis Center
Sun 07:41:23 PM 38.1983 -86.2936 17° North 461 531 31,000  Level Indianapolis Center
Sun 07:42:25 PM 38.3481 -86.2353 17° North 468 539 31,000  Level Indianapolis Center
Sun 07:43:26 PM 38.4733 -86.1894 16° North 470 541 31,000  Level Indianapolis Center
Sun 07:44:28 PM 38.5986 -86.1406 17° North 471 542 31,000  Level Indianapolis Center
Sun 07:45:30 PM 38.7250 -86.0908 17° North 474 545 31,000  Level Indianapolis Center
Sun 07:46:32 PM 38.8514 -86.0433 16° North 473 544 31,000  Level Indianapolis Center
Sun 07:47:33 PM 38.9911 -85.9883 17° North 463 533 31,000  Level Indianapolis Center
Sun 07:48:35 PM 39.1153 -85.9383 17° North 463 533 31,000  Level Indianapolis Center
Sun 07:49:37 PM 39.2372 -85.8906 17° North 458 527 31,000  Level Indianapolis Center
Sun 07:50:39 PM 39.3581 -85.8431 17° North 453 521 31,000  Level Indianapolis Center
Sun 07:51:40 PM 39.4786 -85.7964 17° North 452 520 31,000  Level Indianapolis Center
Sun 07:52:42 PM 39.5983 -85.7489 17° North 450 518 31,000  Level Indianapolis Center
Sun 07:53:44 PM 39.7194 -85.7000 17° North 452 520 31,000  Level Indianapolis Center
Sun 07:54:45 PM 39.8575 -85.6744 North 433 498 31,000  Level Indianapolis Center
Sun 07:55:47 PM 39.9708 -85.7044 349° North 416 479 31,000  Level Indianapolis Center
Sun 07:56:49 PM 40.0892 -85.6803 North 451 519 31,000  Level Indianapolis Center
Sun 07:57:11 PM 40.1281 -85.6583 23° Northeast 455 524 31,000  Level Chicago Center
Sun 07:58:13 PM 40.2475 -85.5931 23° Northeast 460 529 31,000  Level Chicago Center
Sun 07:59:15 PM 40.3675 -85.5272 23° Northeast 463 533 31,000 -145 Level Chicago Center
Sun 08:00:17 PM 40.4881 -85.4625 22° Northeast 466 536 30,700 -1,548 Descending Chicago Center
Sun 08:01:19 PM 40.6275 -85.3833 23° Northeast 466 536 27,800 -2,371 Descending Chicago Center
Sun 08:02:21 PM 40.7283 -85.3281 23° Northeast 458 527 25,800 -2,371 Descending Chicago Center
Sun 08:03:23 PM 40.8647 -85.2494 24° Northeast 449 517 22,900 -2,323 Descending Chicago Center
Sun 08:04:25 PM 40.9725 -85.1883 23° Northeast 430 495 21,000 -919 Descending Chicago Center
Sun 08:05:27 PM 41.0669 -85.0922 37° Northeast 426 490 21,000  Level Chicago Center
Sun 08:06:29 PM 41.1594 -84.9931 39° Northeast 430 495 21,000  Level Chicago Center
Sun 08:07:31 PM 41.2533 -84.8931 39° Northeast 434 499 21,000  Level Chicago Center
Sun 08:08:33 PM 41.3631 -84.7756 39° Northeast 427 491 21,000 -484 Level Chicago Center
Sun 08:09:35 PM 41.4675 -84.7186 22° Northeast 415 478 20,000 -968 Descending Chicago Center
Sun 08:10:37 PM 41.5697 -84.6756 17° North 396 456 19,000 -839 Descending Chicago Center
Sun 08:11:08 PM 41.6278 -84.6283 31° Northeast 388 447 18,700 -783 Descending Cleveland Center
Sun 08:12:09 PM 41.7186 -84.5422 35° Northeast 388 447 17,800 -800 Descending Cleveland Center
Sun 08:13:08 PM 41.7750 -84.4147 59° Northeast 387 445 17,100 -897 Descending Cleveland Center
Sun 08:13:36 PM 41.7794 -84.3425 85° East 413 475 16,500 -1,700 Descending Cleveland Center
Sun 08:14:08 PM 41.7925 -84.2653 77° East 374 430 15,400 -2,129 Descending Cleveland Center
Sun 08:14:38 PM 41.8028 -84.1989 78° East 385 443 14,300 -1,900 Descending Cleveland Center
Sun 08:15:08 PM 41.8089 -84.1436 82° East 374 430 13,500 -2,164 Descending Cleveland Center
Sun 08:15:39 PM 41.8217 -84.0608 78° East 374 430 12,100 -1,400 Descending Cleveland Center
Sun 08:16:08 PM 41.8417 -84.0228 55° Northeast 364 419 12,100  Level Cleveland Center
Sun 08:16:40 PM 41.8806 -83.9747 43° Northeast 271 312 12,100 -100 Level Cleveland Center
Sun 08:17:08 PM 41.8981 -83.9478 49° Northeast 306 352 12,000  Descending Cleveland Center
Sun 08:17:41 PM 41.9347 -83.9022 43° Northeast 271 312 12,100  Climbing Cleveland Center
Sun 08:18:08 PM 41.9503 -83.8778 49° Northeast 278 320 12,000  Descending Cleveland Center
Sun 08:18:42 PM 41.9892 -83.8294 43° Northeast 267 307 12,100 100 Climbing Cleveland Center
Sun 08:19:08 PM 42.0044 -83.8053 50° Northeast 272 313 12,100 -98 Level Cleveland Center
Sun 08:19:43 PM 42.0411 -83.7567 45° Northeast 280 322 12,000 -98 Descending Cleveland Center
Sun 08:20:09 PM 42.0564 -83.7294 53° Northeast 272 313 12,000 88 Level Cleveland Center
Sun 08:20:51 PM 42.0975 -83.6728 46° Northeast 249 287 12,100  Climbing Cleveland Center
Sun 08:21:08 PM 42.1042 -83.6619 50° Northeast 261 300 12,000 -78 Descending Cleveland Center
Sun 08:22:08 PM 42.1519 -83.5942 46° Northeast 256 295 12,000 61 Level Cleveland Center
Sun 08:22:47 PM 42.1964 -83.5597 30° Northeast 237 273 12,100 -480 Climbing Cleveland Center
Sun 08:23:48 PM 42.2561 -83.5147 29° Northeast 245 282 11,200 -1,313 Descending Cleveland Center
Sun 08:24:55 PM 42.3197 -83.4700 27° Northeast 215 247 9,300 -1,674 Descending Cleveland Center
Sun 08:25:57 PM 42.3728 -83.4331 27° Northeast 215 247 7,600 -1,073 Descending Cleveland Center
Sun 08:26:58 PM 42.4258 -83.3989 25° Northeast 210 242 7,100 -984 Descending Cleveland Center
Sun 08:27:59 PM 42.4808 -83.3647 25° Northeast 211 243 5,600 -1,293 Descending Cleveland Center
Sun 08:28:54 PM 42.4844 -83.2975 86° East 202 232 4,600 -1,091 Descending Cleveland Center

Login

Don't have an account? Register now (free) for customized features, flight alerts, and more!